Ghena — 3FAV5 — position and weather

sailwx.info

Track history (hours):
 
Tides and Currents Weather Stations Pressure Air Temp Water Temp Dewpoint Dewpoint Depression Visibility Wind Speed Wind Dir Waves Ship Positions

Ghena

Last reported at 2017-Nov-11 12:18 UTC. Time now 2017-Nov-20 13:33 UTC.
Position N 21°07' W 019°42'.
Warning: this ship's position is 9 days out of date.

Length 190 m; draft 9 m.

Type: Cargo ship. MMSI: 352245000.

Date/timePositionNaut miles runAvg speedWind from/ knotsBaromVisibWave heightAir tempDewpointWater temp
2017-Nov-11 12:18N 21°07' W 019°42'9615.9
2017-Nov-11 06:13N 22°36' W 019°01'416.0
2017-Nov-11 05:57N 22°40' W 018°59'716.1
2017-Nov-11 05:30N 22°46' W 018°56'815.9
2017-Nov-11 05:00N 22°54' W 018°53'1315.6
2017-Nov-11 04:10N 23°06' W 018°47'215.3
2017-Nov-11 04:01N 23°08' W 018°46'34514.7
2017-Nov-10 04:31N 28°20' W 016°02'013.4
2017-Nov-10 04:30N 28°20' W 016°02'815.3
2017-Nov-10 04:00N 28°26' W 015°56'815.4
2017-Nov-10 03:30N 28°32' W 015°51'815.4
2017-Nov-10 03:00N 28°38' W 015°45'815.6
2017-Nov-10 02:30N 28°43' W 015°39'815.5
2017-Nov-10 02:00N 28°48' W 015°32'815.2
2017-Nov-10 01:30N 28°54' W 015°26'815.0
2017-Nov-10 01:00N 28°59' W 015°19'815.0
2017-Nov-10 00:30N 29°04' W 015°13'815.3
2017-Nov-10 00:00N 29°09' W 015°07'1215.6
2017-Nov-09 23:16N 29°17' W 014°57'415.6
2017-Nov-09 23:00N 29°20' W 014°53'815.5
2017-Nov-09 22:30N 29°25' W 014°47'815.4
2017-Nov-09 22:00N 29°30' W 014°41'815.3
2017-Nov-09 21:30N 29°35' W 014°34'815.3
2017-Nov-09 21:00N 29°41' W 014°28'915.5
2017-Nov-09 20:27N 29°46' W 014°20'815.5
2017-Nov-09 19:56N 29°52' W 014°14'615.4
2017-Nov-09 19:30N 29°56' W 014°08'815.3
2017-Nov-09 19:00N 30°02' W 014°02'10714.9
2017-Nov-09 11:48N 31°15' W 012°30'915.1
2017-Nov-09 11:12N 31°21' W 012°23'315.1
2017-Nov-09 11:00N 31°23' W 012°20'915.1
2017-Nov-09 10:26N 31°29' W 012°13'3615.1
2017-Nov-09 08:03N 31°54' W 011°42'215.2
2017-Nov-09 07:54N 31°55' W 011°40'915.1
2017-Nov-09 07:17N 32°02' W 011°32'414.8
2017-Nov-09 07:00N 32°04' W 011°28'914.8
2017-Nov-09 06:25N 32°10' W 011°21'715.0
2017-Nov-09 05:59N 32°15' W 011°15'715.2
2017-Nov-09 05:30N 32°20' W 011°09'715.4
2017-Nov-09 05:00N 32°25' W 011°02'815.6
2017-Nov-09 04:29N 32°31' W 010°55'815.5
2017-Nov-09 03:58N 32°36' W 010°48'815.0
2017-Nov-09 03:27N 32°41' W 010°41'714.9
2017-Nov-09 03:00N 32°46' W 010°36'714.8
2017-Nov-09 02:30N 32°51' W 010°29'815.1
2017-Nov-09 02:00N 32°56' W 010°23'815.3
2017-Nov-09 01:30N 33°01' W 010°16'915.4
2017-Nov-09 00:57N 33°07' W 010°09'715.5
2017-Nov-09 00:30N 33°12' W 010°03'815.6
2017-Nov-09 00:00N 33°17' W 009°56'815.5
2017-Nov-08 23:30N 33°22' W 009°49'815.4
2017-Nov-08 23:00N 33°28' W 009°42'815.2
2017-Nov-08 22:30N 33°33' W 009°36'714.9
2017-Nov-08 22:00N 33°38' W 009°29'815.1
2017-Nov-08 21:30N 33°43' W 009°22'815.6
2017-Nov-08 21:00N 33°48' W 009°16'815.9
2017-Nov-08 20:30N 33°54' W 009°09'815.9
2017-Nov-08 20:00N 33°59' W 009°01'815.7
2017-Nov-08 19:30N 34°05' W 008°55'5015.5
2017-Nov-08 16:15N 34°39' W 008°10'615.4
2017-Nov-08 15:52N 34°43' W 008°05'157 6.2
2017-Nov-07 14:32N 36°09' W 005°23'0 0.1
2017-Nov-07 14:19N 36°09' W 005°23'0 0.2
2017-Nov-07 14:00N 36°09' W 005°23'3 5.2
2017-Nov-07 13:30N 36°06' W 005°22'2 4.1
2017-Nov-07 13:00N 36°04' W 005°21'1 2.7
2017-Nov-07 12:30N 36°05' W 005°20'1 1.9
2017-Nov-07 12:00N 36°05' W 005°19'3 5.1
2017-Nov-07 11:30N 36°06' W 005°16'611.2
2017-Nov-07 11:00N 36°08' W 005°09'3 5.3
2017-Nov-07 10:31N 36°09' W 005°06'0 0.4
2017-Nov-07 10:00N 36°08' W 005°06'0 0.4
2017-Nov-07 09:30N 36°08' W 005°06'0 0.6
2017-Nov-07 08:51N 36°08' W 005°07'0 0.7
2017-Nov-07 08:30N 36°08' W 005°07'0 0.8
2017-Nov-07 08:00N 36°09' W 005°07'0 0.8
2017-Nov-07 07:30N 36°09' W 005°08'0 0.9
2017-Nov-07 07:00N 36°09' W 005°08'0 0.8
2017-Nov-07 06:30N 36°09' W 005°09'0 0.3
2017-Nov-07 06:00N 36°09' W 005°09'2 4.0
2017-Nov-07 05:30N 36°10' W 005°07'187 6.9
2017-Nov-06 02:30N 37°10' W 001°25'815.8
2017-Nov-06 02:00N 37°16' W 001°19'815.8
2017-Nov-06 01:30N 37°22' W 001°12'815.3
2017-Nov-06 00:59N 37°28' W 001°06'613.2
2017-Nov-06 00:30N 37°33' W 001°01'3 4.3
2017-Nov-05 23:46N 37°34' W 000°57'  
Track history (hours):
 
Tides and Currents Weather Stations Pressure Air Temp Water Temp Dewpoint Dewpoint Depression Visibility Wind Speed Wind Dir Waves Ship Positions

Ghena

Last reported at 2017-Nov-11 12:18 UTC. Time now 2017-Nov-20 13:33 UTC.
Position N 21°07' W 019°42'.
Warning: this ship's position is 9 days out of date.

Length 190 m; draft 9 m.

Type: Cargo ship. MMSI: 352245000.

Date/timePositionNaut miles runAvg speedWind from/ knotsBaromVisibWave heightAir tempDewpointWater temp
2017-Nov-11 12:18N 21°07' W 019°42'9615.9
2017-Nov-11 06:13N 22°36' W 019°01'416.0
2017-Nov-11 05:57N 22°40' W 018°59'716.1
2017-Nov-11 05:30N 22°46' W 018°56'815.9
2017-Nov-11 05:00N 22°54' W 018°53'1315.6
2017-Nov-11 04:10N 23°06' W 018°47'215.3
2017-Nov-11 04:01N 23°08' W 018°46'34514.7
2017-Nov-10 04:31N 28°20' W 016°02'013.4
2017-Nov-10 04:30N 28°20' W 016°02'815.3
2017-Nov-10 04:00N 28°26' W 015°56'815.4
2017-Nov-10 03:30N 28°32' W 015°51'815.4
2017-Nov-10 03:00N 28°38' W 015°45'815.6
2017-Nov-10 02:30N 28°43' W 015°39'815.5
2017-Nov-10 02:00N 28°48' W 015°32'815.2
2017-Nov-10 01:30N 28°54' W 015°26'815.0
2017-Nov-10 01:00N 28°59' W 015°19'815.0
2017-Nov-10 00:30N 29°04' W 015°13'815.3
2017-Nov-10 00:00N 29°09' W 015°07'1215.6
2017-Nov-09 23:16N 29°17' W 014°57'415.6
2017-Nov-09 23:00N 29°20' W 014°53'815.5
2017-Nov-09 22:30N 29°25' W 014°47'815.4
2017-Nov-09 22:00N 29°30' W 014°41'815.3
2017-Nov-09 21:30N 29°35' W 014°34'815.3
2017-Nov-09 21:00N 29°41' W 014°28'915.5
2017-Nov-09 20:27N 29°46' W 014°20'815.5
2017-Nov-09 19:56N 29°52' W 014°14'615.4
2017-Nov-09 19:30N 29°56' W 014°08'815.3
2017-Nov-09 19:00N 30°02' W 014°02'10714.9
2017-Nov-09 11:48N 31°15' W 012°30'915.1
2017-Nov-09 11:12N 31°21' W 012°23'315.1
2017-Nov-09 11:00N 31°23' W 012°20'915.1
2017-Nov-09 10:26N 31°29' W 012°13'3615.1
2017-Nov-09 08:03N 31°54' W 011°42'215.2
2017-Nov-09 07:54N 31°55' W 011°40'915.1
2017-Nov-09 07:17N 32°02' W 011°32'414.8
2017-Nov-09 07:00N 32°04' W 011°28'914.8
2017-Nov-09 06:25N 32°10' W 011°21'715.0
2017-Nov-09 05:59N 32°15' W 011°15'715.2
2017-Nov-09 05:30N 32°20' W 011°09'715.4
2017-Nov-09 05:00N 32°25' W 011°02'815.6
2017-Nov-09 04:29N 32°31' W 010°55'815.5
2017-Nov-09 03:58N 32°36' W 010°48'815.0
2017-Nov-09 03:27N 32°41' W 010°41'714.9
2017-Nov-09 03:00N 32°46' W 010°36'714.8
2017-Nov-09 02:30N 32°51' W 010°29'815.1
2017-Nov-09 02:00N 32°56' W 010°23'815.3
2017-Nov-09 01:30N 33°01' W 010°16'915.4
2017-Nov-09 00:57N 33°07' W 010°09'715.5
2017-Nov-09 00:30N 33°12' W 010°03'815.6
2017-Nov-09 00:00N 33°17' W 009°56'815.5
2017-Nov-08 23:30N 33°22' W 009°49'815.4
2017-Nov-08 23:00N 33°28' W 009°42'815.2
2017-Nov-08 22:30N 33°33' W 009°36'714.9
2017-Nov-08 22:00N 33°38' W 009°29'815.1
2017-Nov-08 21:30N 33°43' W 009°22'815.6
2017-Nov-08 21:00N 33°48' W 009°16'815.9
2017-Nov-08 20:30N 33°54' W 009°09'815.9
2017-Nov-08 20:00N 33°59' W 009°01'815.7
2017-Nov-08 19:30N 34°05' W 008°55'5015.5
2017-Nov-08 16:15N 34°39' W 008°10'615.4
2017-Nov-08 15:52N 34°43' W 008°05'157 6.2
2017-Nov-07 14:32N 36°09' W 005°23'0 0.1
2017-Nov-07 14:19N 36°09' W 005°23'0 0.2
2017-Nov-07 14:00N 36°09' W 005°23'3 5.2
2017-Nov-07 13:30N 36°06' W 005°22'2 4.1
2017-Nov-07 13:00N 36°04' W 005°21'1 2.7
2017-Nov-07 12:30N 36°05' W 005°20'1 1.9
2017-Nov-07 12:00N 36°05' W 005°19'3 5.1
2017-Nov-07 11:30N 36°06' W 005°16'611.2
2017-Nov-07 11:00N 36°08' W 005°09'3 5.3
2017-Nov-07 10:31N 36°09' W 005°06'0 0.4
2017-Nov-07 10:00N 36°08' W 005°06'0 0.4
2017-Nov-07 09:30N 36°08' W 005°06'0 0.6
2017-Nov-07 08:51N 36°08' W 005°07'0 0.7
2017-Nov-07 08:30N 36°08' W 005°07'0 0.8
2017-Nov-07 08:00N 36°09' W 005°07'0 0.8
2017-Nov-07 07:30N 36°09' W 005°08'0 0.9
2017-Nov-07 07:00N 36°09' W 005°08'0 0.8
2017-Nov-07 06:30N 36°09' W 005°09'0 0.3
2017-Nov-07 06:00N 36°09' W 005°09'2 4.0
2017-Nov-07 05:30N 36°10' W 005°07'187 6.9
2017-Nov-06 02:30N 37°10' W 001°25'815.8
2017-Nov-06 02:00N 37°16' W 001°19'815.8
2017-Nov-06 01:30N 37°22' W 001°12'815.3
2017-Nov-06 00:59N 37°28' W 001°06'613.2
2017-Nov-06 00:30N 37°33' W 001°01'3 4.3
2017-Nov-05 23:46N 37°34' W 000°57'  

Dump ship's entire track history